createdAt,value
2022-10-11T00:00:14.106Z,65.83
2022-10-11T00:01:37.087Z,65.98
2022-10-11T00:02:40.110Z,66.00
2022-10-11T00:03:43.250Z,65.93
2022-10-11T00:04:47.183Z,66.07
2022-10-11T00:05:50.548Z,66.02
2022-10-11T00:06:53.637Z,65.99
2022-10-11T00:07:56.905Z,66.01
2022-10-11T00:08:59.864Z,66.01
2022-10-11T00:10:04.514Z,66.04
2022-10-11T00:11:08.612Z,66.11
2022-10-11T00:12:11.715Z,66.13
2022-10-11T00:13:14.670Z,66.16
2022-10-11T00:14:17.659Z,66.11
2022-10-11T00:15:22.702Z,66.17
2022-10-11T00:16:25.804Z,66.24
2022-10-11T00:17:28.816Z,66.26
2022-10-11T00:18:32.186Z,66.27
2022-10-11T00:19:35.406Z,66.24
2022-10-11T00:20:38.443Z,66.33
2022-10-11T00:21:41.770Z,66.35
2022-10-11T00:22:44.928Z,66.36
2022-10-11T00:23:48.886Z,66.47
2022-10-11T00:24:52.989Z,66.39
2022-10-11T00:25:58.018Z,66.51
2022-10-11T00:27:01.317Z,66.64
2022-10-11T00:28:04.521Z,66.61
2022-10-11T00:29:07.892Z,66.67
2022-10-11T00:30:11.517Z,66.74
2022-10-11T00:31:16.527Z,66.81
2022-10-11T00:32:19.852Z,66.82
2022-10-11T00:33:22.937Z,66.94
2022-10-11T00:34:26.051Z,66.99
2022-10-11T00:35:29.020Z,67.11
2022-10-11T00:36:31.969Z,67.02
2022-10-11T00:37:37.961Z,67.08
2022-10-11T00:38:41.199Z,67.16
2022-10-11T00:39:44.459Z,67.22
2022-10-11T00:40:47.724Z,67.14
2022-10-11T00:41:50.715Z,67.17
2022-10-11T00:42:53.845Z,67.30
2022-10-11T00:44:14.974Z,67.30
2022-10-11T00:45:26.787Z,67.31
2022-10-11T00:46:31.326Z,67.33
2022-10-11T00:47:34.327Z,67.32
2022-10-11T00:48:46.256Z,67.40
2022-10-11T00:49:55.678Z,67.41
2022-10-11T00:51:01.385Z,67.55
2022-10-11T00:52:15.499Z,67.59
2022-10-11T00:53:18.651Z,67.73
2022-10-11T00:54:25.453Z,67.68
2022-10-11T00:55:34.288Z,67.93
2022-10-11T00:56:40.246Z,67.91
2022-10-11T00:57:48.356Z,68.02
2022-10-11T00:58:52.759Z,68.12
2022-10-11T00:59:56.523Z,68.06
2022-10-11T01:00:59.652Z,68.15
2022-10-11T01:02:04.475Z,68.45
2022-10-11T01:03:07.576Z,68.44
2022-10-11T01:04:10.621Z,68.56
2022-10-11T01:05:32.220Z,68.53
2022-10-11T01:06:35.512Z,68.71
2022-10-11T01:07:39.703Z,68.79
2022-10-11T01:08:43.504Z,68.91
2022-10-11T01:09:47.127Z,69.05
2022-10-11T01:10:50.830Z,69.09
2022-10-11T01:11:57.971Z,69.15
2022-10-11T01:13:33.575Z,69.18
2022-10-11T01:14:49.796Z,69.36
2022-10-11T01:16:00.356Z,69.70
2022-10-11T01:17:15.417Z,69.62
2022-10-11T01:18:33.242Z,69.49
2022-10-11T01:19:57.612Z,69.65
2022-10-11T01:21:05.638Z,69.86
2022-10-11T01:22:39.362Z,70.03
2022-10-11T01:24:19.993Z,69.97
2022-10-11T01:25:37.692Z,69.90
2022-10-11T01:26:40.657Z,69.99
2022-10-11T01:28:11.615Z,70.12
2022-10-11T01:29:52.663Z,70.16
2022-10-11T01:31:01.930Z,70.23
2022-10-11T01:32:13.671Z,70.30
2022-10-11T01:33:32.200Z,70.24
2022-10-11T01:35:21.365Z,70.37
2022-10-11T01:36:36.192Z,70.80
2022-10-11T01:37:45.358Z,71.23
2022-10-11T01:38:58.351Z,71.09
2022-10-11T01:40:09.548Z,71.11
2022-10-11T01:41:21.992Z,71.38
2022-10-11T01:42:26.224Z,71.37
2022-10-11T01:43:31.180Z,71.59
2022-10-11T01:44:37.520Z,71.53
2022-10-11T01:45:42.980Z,71.82
2022-10-11T01:46:46.402Z,71.84
2022-10-11T01:48:01.667Z,72.06
2022-10-11T01:49:05.634Z,72.10
2022-10-11T01:50:34.413Z,72.20
2022-10-11T01:51:37.435Z,72.09
2022-10-11T01:52:44.623Z,72.27
2022-10-11T01:54:09.568Z,72.02
2022-10-11T01:55:33.091Z,72.11
2022-10-11T01:57:04.572Z,72.61
2022-10-11T01:58:28.319Z,72.58
2022-10-11T01:59:37.253Z,72.72
2022-10-11T02:00:46.340Z,72.76
2022-10-11T02:01:52.424Z,72.81
2022-10-11T02:03:01.050Z,72.85
2022-10-11T02:04:25.228Z,73.12
2022-10-11T02:05:45.429Z,73.11
2022-10-11T02:06:58.864Z,73.48
2022-10-11T02:08:17.248Z,73.49
2022-10-11T02:09:38.554Z,73.73
2022-10-11T02:10:54.588Z,73.80
2022-10-11T02:12:03.870Z,74.11
2022-10-11T02:13:16.439Z,73.92
2022-10-11T02:14:25.380Z,74.14
2022-10-11T02:15:31.512Z,74.45
2022-10-11T02:16:43.772Z,74.29
2022-10-11T02:17:52.683Z,74.35
2022-10-11T02:18:58.715Z,74.38
2022-10-11T02:20:08.739Z,74.36
2022-10-11T02:21:16.669Z,74.43
2022-10-11T02:22:24.625Z,74.55
2022-10-11T02:23:40.236Z,74.66
2022-10-11T02:24:49.336Z,74.60
2022-10-11T02:25:54.508Z,74.73
2022-10-11T02:27:00.051Z,74.86
2022-10-11T02:28:09.316Z,74.72
2022-10-11T02:29:15.840Z,74.81
2022-10-11T02:30:18.968Z,74.99
2022-10-11T02:32:48.381Z,74.99
2022-10-11T02:34:22.191Z,75.11
2022-10-11T02:35:29.595Z,75.08
2022-10-11T02:37:13.585Z,75.05
2022-10-11T02:38:24.834Z,75.28
2022-10-11T02:39:45.186Z,75.48
2022-10-11T02:40:56.599Z,75.41
2022-10-11T02:42:04.658Z,75.59
2022-10-11T02:43:25.011Z,75.49
2022-10-11T02:44:34.180Z,75.67
2022-10-11T02:45:59.632Z,76.11
2022-10-11T02:47:04.964Z,75.91
2022-10-11T02:48:10.853Z,76.02
2022-10-11T02:49:15.306Z,76.18
2022-10-11T02:50:18.331Z,76.05
2022-10-11T02:51:21.708Z,76.15
2022-10-11T02:52:24.745Z,76.31
2022-10-11T02:53:27.741Z,76.30
2022-10-11T02:54:31.213Z,76.54
2022-10-11T02:55:34.534Z,76.54
2022-10-11T02:56:37.781Z,76.65
2022-10-11T02:57:40.941Z,76.51
2022-10-11T02:58:43.906Z,76.51
2022-10-11T02:59:46.946Z,76.67
2022-10-11T03:00:50.149Z,76.74
2022-10-11T03:01:53.511Z,77.05
2022-10-11T03:02:56.767Z,77.20
2022-10-11T03:03:59.783Z,77.43
2022-10-11T03:05:04.961Z,77.44
2022-10-11T03:06:08.448Z,77.18
2022-10-11T03:07:12.039Z,77.39
2022-10-11T03:08:17.265Z,77.67
2022-10-11T03:09:20.498Z,77.40
2022-10-11T03:10:23.476Z,77.41
2022-10-11T03:11:26.547Z,77.70
2022-10-11T03:12:29.862Z,77.66
2022-10-11T03:13:32.990Z,77.86
2022-10-11T03:14:35.911Z,78.28
2022-10-11T03:15:38.989Z,78.30
2022-10-11T03:16:41.947Z,78.17
2022-10-11T03:17:45.250Z,78.31
2022-10-11T03:18:48.435Z,78.53
2022-10-11T03:19:51.664Z,78.46
2022-10-11T03:20:54.692Z,78.48
2022-10-11T03:21:57.804Z,78.82
2022-10-11T03:23:01.084Z,78.77
2022-10-11T03:24:04.521Z,79.38
2022-10-11T03:25:08.029Z,79.22
2022-10-11T03:26:11.113Z,79.16
2022-10-11T03:27:14.342Z,79.35
2022-10-11T03:28:17.632Z,79.33
2022-10-11T03:29:20.860Z,79.45
2022-10-11T03:30:23.926Z,79.61
2022-10-11T03:31:26.946Z,79.44
2022-10-11T03:32:30.660Z,79.42
2022-10-11T03:33:33.973Z,79.73
2022-10-11T03:34:37.239Z,79.86
2022-10-11T03:35:40.743Z,80.10
2022-10-11T03:36:43.797Z,79.80
2022-10-11T03:37:46.756Z,79.71
2022-10-11T03:38:50.081Z,80.07
2022-10-11T03:39:53.384Z,80.41
2022-10-11T03:40:56.616Z,80.28
2022-10-11T03:41:59.620Z,80.62
2022-10-11T03:43:02.856Z,80.39
2022-10-11T03:44:06.095Z,80.17
2022-10-11T03:45:09.935Z,80.00
2022-10-11T03:46:13.154Z,80.47
2022-10-11T03:47:16.351Z,80.40
2022-10-11T03:48:19.501Z,80.40
2022-10-11T03:49:23.296Z,80.09
2022-10-11T03:50:26.386Z,80.06
2022-10-11T03:51:29.656Z,79.94
2022-10-11T03:52:32.837Z,80.26
2022-10-11T03:53:35.964Z,80.19
2022-10-11T03:54:39.033Z,80.08
2022-10-11T03:55:42.533Z,80.68
2022-10-11T03:56:45.736Z,80.54
2022-10-11T03:57:48.721Z,80.13
2022-10-11T03:58:51.859Z,80.12
2022-10-11T03:59:55.325Z,80.06
2022-10-11T04:00:58.503Z,79.93
2022-10-11T04:02:02.086Z,80.23
2022-10-11T04:03:06.612Z,80.25
2022-10-11T04:04:09.802Z,80.33
2022-10-11T04:05:13.045Z,80.12
2022-10-11T04:06:16.269Z,79.88
2022-10-11T04:07:19.444Z,79.92
2022-10-11T04:08:22.538Z,79.93
2022-10-11T04:09:25.625Z,79.70
2022-10-11T04:10:28.768Z,79.87
2022-10-11T04:11:32.834Z,79.81
2022-10-11T04:12:38.482Z,79.64
2022-10-11T04:13:41.430Z,79.87
2022-10-11T04:14:44.576Z,79.90
2022-10-11T04:15:47.679Z,80.04
2022-10-11T04:16:50.843Z,79.87
2022-10-11T04:17:54.127Z,79.90
2022-10-11T04:18:57.459Z,80.15
2022-10-11T04:20:00.710Z,79.78
2022-10-11T04:21:04.457Z,79.75
2022-10-11T04:22:07.799Z,80.03
2022-10-11T04:23:10.761Z,80.18
2022-10-11T04:24:13.846Z,79.97
2022-10-11T04:25:16.979Z,80.10
2022-10-11T04:26:20.087Z,79.64
2022-10-11T04:27:23.130Z,79.63
2022-10-11T04:28:26.280Z,79.68
2022-10-11T04:29:32.512Z,79.84
2022-10-11T04:30:36.036Z,79.82
2022-10-11T04:31:39.222Z,79.63
2022-10-11T04:32:42.663Z,79.64
2022-10-11T04:33:45.701Z,79.58
2022-10-11T04:34:48.863Z,79.51
2022-10-11T04:35:56.270Z,79.43
2022-10-11T04:36:59.670Z,79.46
2022-10-11T04:38:02.833Z,79.34
2022-10-11T04:39:06.778Z,79.38
2022-10-11T04:40:10.617Z,79.31
2022-10-11T04:41:14.643Z,79.70
2022-10-11T04:42:17.790Z,79.28
2022-10-11T04:43:20.916Z,79.24
2022-10-11T04:44:23.899Z,79.14
2022-10-11T04:45:26.949Z,79.07
2022-10-11T04:46:30.124Z,79.25
2022-10-11T04:47:33.335Z,79.09
2022-10-11T04:48:36.706Z,78.83
2022-10-11T04:49:40.008Z,78.89
2022-10-11T04:50:44.806Z,78.75
2022-10-11T04:51:52.561Z,78.70
2022-10-11T04:52:55.669Z,78.66
2022-10-11T04:53:58.908Z,78.68
2022-10-11T04:55:01.958Z,78.74
2022-10-11T04:56:08.168Z,78.44
2022-10-11T04:57:11.782Z,78.32
2022-10-11T04:58:14.876Z,78.38
2022-10-11T04:59:18.219Z,78.34
2022-10-11T05:00:22.015Z,78.22
2022-10-11T05:01:25.141Z,78.03
2022-10-11T05:02:28.334Z,77.96
2022-10-11T05:03:32.026Z,77.91
2022-10-11T05:04:35.319Z,77.93
2022-10-11T05:05:38.397Z,77.75
2022-10-11T05:06:41.386Z,77.76
2022-10-11T05:07:44.532Z,77.49
2022-10-11T05:08:47.701Z,77.67
2022-10-11T05:09:50.780Z,77.49
2022-10-11T05:11:04.785Z,77.57
2022-10-11T05:12:07.792Z,77.48
2022-10-11T05:13:10.796Z,77.41
2022-10-11T05:14:13.954Z,77.44
2022-10-11T05:15:17.017Z,77.43
2022-10-11T05:16:20.164Z,77.45
2022-10-11T05:17:23.140Z,77.48
2022-10-11T05:18:26.780Z,77.49
2022-10-11T05:19:29.860Z,77.69
2022-10-11T05:20:32.888Z,77.59
2022-10-11T05:21:35.783Z,77.54
2022-10-11T05:22:38.881Z,77.56
2022-10-11T05:23:42.467Z,77.42
2022-10-11T05:24:45.562Z,77.58
2022-10-11T05:25:48.509Z,77.65
2022-10-11T05:26:51.513Z,77.58
2022-10-11T05:27:54.478Z,77.54
2022-10-11T05:28:58.047Z,77.65
2022-10-11T05:30:02.038Z,77.61
2022-10-11T05:31:05.323Z,77.78
2022-10-11T05:32:08.393Z,77.72
2022-10-11T05:33:11.540Z,77.74
2022-10-11T05:34:14.440Z,77.75
2022-10-11T05:35:17.482Z,77.80
2022-10-11T05:36:21.161Z,77.66
2022-10-11T05:37:24.431Z,77.65
2022-10-11T05:38:27.833Z,77.61
2022-10-11T05:39:30.825Z,77.57
2022-10-11T05:40:33.873Z,77.66
2022-10-11T05:41:37.117Z,77.51
2022-10-11T05:42:40.187Z,77.58
2022-10-11T05:43:44.791Z,77.42
2022-10-11T05:44:47.759Z,77.39
2022-10-11T05:45:50.991Z,77.35
2022-10-11T05:46:54.006Z,77.23
2022-10-11T05:47:56.947Z,77.34
2022-10-11T05:49:00.021Z,77.09
2022-10-11T05:50:03.113Z,77.11
2022-10-11T05:51:09.872Z,77.12
2022-10-11T05:52:13.707Z,77.00
2022-10-11T05:53:16.788Z,76.93
2022-10-11T05:54:20.006Z,76.81
2022-10-11T05:55:23.205Z,76.88
2022-10-11T05:56:26.827Z,76.86
2022-10-11T05:57:29.844Z,76.73
2022-10-11T05:58:32.937Z,76.55
2022-10-11T05:59:36.012Z,76.50
2022-10-11T06:00:39.420Z,76.56
2022-10-11T06:01:42.508Z,76.62
2022-10-11T06:02:45.677Z,76.44
2022-10-11T06:03:49.268Z,76.51
2022-10-11T06:04:52.197Z,76.33
2022-10-11T06:05:57.253Z,76.29
2022-10-11T06:07:00.715Z,76.29
2022-10-11T06:08:06.188Z,76.18
2022-10-11T06:09:09.421Z,76.26
2022-10-11T06:10:12.871Z,76.14
2022-10-11T06:11:24.863Z,76.08
2022-10-11T06:12:30.317Z,76.12
2022-10-11T06:13:33.774Z,76.24
2022-10-11T06:14:37.241Z,75.99
2022-10-11T06:15:40.587Z,75.92
2022-10-11T06:16:43.556Z,75.96
2022-10-11T06:17:47.689Z,75.94
2022-10-11T06:18:54.898Z,75.94
2022-10-11T06:19:57.981Z,75.87
2022-10-11T06:21:01.003Z,75.70
2022-10-11T06:22:04.143Z,75.67
2022-10-11T06:23:07.562Z,75.53
2022-10-11T06:24:10.764Z,75.56
2022-10-11T06:25:13.895Z,75.59
2022-10-11T06:26:17.723Z,75.53
2022-10-11T06:27:21.087Z,75.27
2022-10-11T06:28:24.290Z,75.21
2022-10-11T06:29:27.444Z,75.09
2022-10-11T06:30:30.604Z,74.48
2022-10-11T06:31:34.139Z,74.54
2022-10-11T06:32:37.117Z,74.56
2022-10-11T06:33:40.485Z,74.56
2022-10-11T06:34:43.514Z,74.31
2022-10-11T06:35:46.536Z,74.38
2022-10-11T06:36:49.601Z,74.17
2022-10-11T06:37:52.823Z,74.13
2022-10-11T06:38:56.222Z,73.98
2022-10-11T06:39:59.588Z,73.71
2022-10-11T06:41:24.287Z,73.57
2022-10-11T06:42:27.664Z,73.60
2022-10-11T06:43:30.905Z,73.79
2022-10-11T06:44:34.038Z,73.67
2022-10-11T06:45:36.964Z,73.62
2022-10-11T06:46:40.408Z,73.57
2022-10-11T06:47:43.465Z,73.85
2022-10-11T06:48:47.981Z,73.83
2022-10-11T06:49:51.170Z,73.67
2022-10-11T06:51:00.130Z,73.43
2022-10-11T06:52:03.726Z,73.07
2022-10-11T06:53:08.114Z,72.89
2022-10-11T06:54:11.361Z,72.74
2022-10-11T06:55:14.656Z,72.75
2022-10-11T06:56:17.954Z,72.77
2022-10-11T06:57:20.874Z,72.41
2022-10-11T06:58:23.886Z,72.66
2022-10-11T06:59:26.852Z,72.45
2022-10-11T07:00:30.245Z,72.34
2022-10-11T07:01:33.402Z,72.57
2022-10-11T07:02:36.455Z,72.62
2022-10-11T07:03:39.711Z,72.56
2022-10-11T07:04:42.853Z,72.57
2022-10-11T07:05:46.034Z,72.31
2022-10-11T07:06:49.098Z,72.38
2022-10-11T07:07:52.709Z,72.24
2022-10-11T07:08:56.143Z,72.25
2022-10-11T07:09:59.359Z,72.26
2022-10-11T07:11:10.942Z,71.93
2022-10-11T07:12:14.018Z,71.86
2022-10-11T07:13:17.433Z,71.50
2022-10-11T07:14:20.648Z,71.57
2022-10-11T07:15:23.820Z,71.41
2022-10-11T07:16:28.246Z,71.09
2022-10-11T07:17:31.222Z,70.64
2022-10-11T07:18:34.697Z,70.06
2022-10-11T07:19:37.759Z,70.16
2022-10-11T07:20:41.184Z,70.41
2022-10-11T07:21:44.420Z,70.54
2022-10-11T07:22:47.395Z,70.48
2022-10-11T07:23:50.403Z,70.41
2022-10-11T07:24:53.677Z,70.18
2022-10-11T07:25:56.737Z,69.85
2022-10-11T07:26:59.806Z,69.85
2022-10-11T07:28:02.928Z,69.76
2022-10-11T07:29:07.725Z,69.48
2022-10-11T07:30:11.277Z,69.69
2022-10-11T07:31:20.118Z,69.27
2022-10-11T07:32:23.219Z,69.32
2022-10-11T07:33:26.380Z,69.41
2022-10-11T07:34:29.365Z,69.23
2022-10-11T07:35:34.995Z,69.14
2022-10-11T07:36:38.096Z,69.38
2022-10-11T07:37:41.417Z,69.45
2022-10-11T07:38:47.172Z,68.99
2022-10-11T07:39:50.351Z,68.73
2022-10-11T07:40:53.467Z,68.58
2022-10-11T07:41:56.459Z,68.70
2022-10-11T07:43:00.888Z,68.89
2022-10-11T07:44:04.463Z,68.97
2022-10-11T07:45:08.006Z,68.62
2022-10-11T07:46:11.429Z,68.37
2022-10-11T07:47:14.737Z,67.59
2022-10-11T07:48:17.973Z,67.96
2022-10-11T07:49:20.966Z,67.85
2022-10-11T07:50:24.445Z,67.72
2022-10-11T07:51:27.524Z,67.46
2022-10-11T07:52:30.502Z,67.51
2022-10-11T07:53:42.212Z,67.54
2022-10-11T07:54:45.154Z,67.48
2022-10-11T07:55:48.144Z,67.32
2022-10-11T07:56:51.629Z,67.19
2022-10-11T07:57:55.242Z,67.04
2022-10-11T07:59:01.436Z,67.34
2022-10-11T08:00:05.715Z,67.23
2022-10-11T08:01:14.829Z,67.52
2022-10-11T08:02:17.882Z,67.53
2022-10-11T08:03:20.926Z,67.76
2022-10-11T08:04:24.048Z,67.70
2022-10-11T08:05:27.057Z,66.97
2022-10-11T08:06:32.674Z,65.79
2022-10-11T08:07:36.853Z,66.65
2022-10-11T08:08:39.938Z,66.53
2022-10-11T08:09:43.150Z,66.55
2022-10-11T08:10:46.263Z,66.60
2022-10-11T08:11:49.273Z,66.67
2022-10-11T08:12:53.785Z,66.81
2022-10-11T08:13:57.843Z,66.60
2022-10-11T08:15:01.451Z,65.88
2022-10-11T08:16:11.292Z,65.98
2022-10-11T08:17:14.708Z,64.72
2022-10-11T08:18:17.780Z,65.08
2022-10-11T08:19:20.858Z,65.34
2022-10-11T08:20:23.967Z,65.38
2022-10-11T08:21:27.022Z,65.42
2022-10-11T08:22:30.561Z,65.23
2022-10-11T08:23:33.716Z,65.28
2022-10-11T08:24:38.484Z,64.94
2022-10-11T08:25:45.334Z,64.68
2022-10-11T08:26:48.657Z,63.95
2022-10-11T08:27:51.665Z,64.02
2022-10-11T08:28:56.360Z,63.57
2022-10-11T08:29:59.392Z,63.79
2022-10-11T08:31:03.415Z,63.88
2022-10-11T08:32:06.591Z,63.87
2022-10-11T08:33:09.515Z,63.11
2022-10-11T09:33:52.426Z,59.33
2022-10-11T09:35:18.494Z,59.23
2022-10-11T09:36:24.303Z,59.86
2022-10-11T09:37:34.318Z,59.91
2022-10-11T09:38:51.088Z,60.08
2022-10-11T09:40:02.083Z,60.30
2022-10-11T09:41:16.685Z,60.75
2022-10-11T09:42:19.990Z,60.82
2022-10-11T09:43:22.907Z,60.81
2022-10-11T09:44:33.137Z,60.80
2022-10-11T09:45:36.540Z,60.79
2022-10-11T09:46:45.116Z,61.06
2022-10-11T09:47:50.826Z,61.12
2022-10-11T09:48:57.726Z,61.21
2022-10-11T09:50:04.993Z,61.15
2022-10-11T09:51:28.897Z,61.33
2022-10-11T09:52:33.631Z,60.90
2022-10-11T09:54:10.885Z,61.12
2022-10-11T09:55:35.916Z,60.73
2022-10-11T09:56:46.301Z,60.46
2022-10-11T09:57:54.769Z,60.63
2022-10-11T09:59:16.263Z,60.68
2022-10-11T10:00:25.420Z,60.18
2022-10-11T10:01:30.038Z,60.12
2022-10-11T10:02:40.606Z,60.29
2022-10-11T10:03:44.249Z,60.44
2022-10-11T10:05:04.151Z,60.55
2022-10-11T10:06:17.835Z,60.03
2022-10-11T10:07:21.120Z,59.75
2022-10-11T10:08:24.885Z,59.89
2022-10-11T10:09:31.027Z,59.71
2022-10-11T10:10:41.707Z,59.56
2022-10-11T10:11:44.727Z,59.35
2022-10-11T10:12:55.048Z,58.50
2022-10-11T10:13:58.143Z,58.25
2022-10-11T10:15:17.800Z,58.08
2022-10-11T10:16:25.942Z,57.73
2022-10-11T10:17:29.264Z,56.58
2022-10-11T10:18:50.440Z,57.16
2022-10-11T10:19:56.000Z,57.31
2022-10-11T10:21:00.378Z,57.65
2022-10-11T10:22:03.944Z,57.28
2022-10-11T10:23:29.937Z,57.11
2022-10-11T10:24:32.910Z,56.77
2022-10-11T10:25:43.363Z,56.34
2022-10-11T10:27:14.665Z,56.65
2022-10-11T10:28:22.384Z,56.13
2022-10-11T10:29:25.313Z,56.44
2022-10-11T10:30:33.105Z,56.37
2022-10-11T10:33:17.061Z,55.03
2022-10-11T10:34:28.747Z,55.24
2022-10-11T10:35:48.742Z,55.11
2022-10-11T10:36:57.837Z,55.46
2022-10-11T10:38:06.624Z,55.35
2022-10-11T10:39:16.872Z,55.23
2022-10-11T10:40:40.151Z,55.06
2022-10-11T10:41:43.121Z,55.12
2022-10-11T10:42:46.058Z,54.76
2022-10-11T10:43:52.562Z,54.55
2022-10-11T10:45:00.040Z,54.67
2022-10-11T10:46:18.080Z,54.89
2022-10-11T10:47:31.961Z,53.91
2022-10-11T10:49:12.025Z,54.08
2022-10-11T10:50:08.670Z,53.80
2022-10-11T10:51:22.933Z,53.86
2022-10-11T10:52:44.642Z,54.19
2022-10-11T10:53:50.927Z,52.46
2022-10-11T10:54:53.872Z,51.86
2022-10-11T10:56:11.142Z,51.78
2022-10-11T10:57:31.893Z,52.28
2022-10-11T10:58:43.775Z,51.87
2022-10-11T10:59:53.207Z,50.24
2022-10-11T11:01:10.898Z,49.95
2022-10-11T11:02:35.339Z,49.42
2022-10-11T11:04:02.521Z,49.63
2022-10-11T11:05:05.271Z,48.83
2022-10-11T11:06:11.914Z,49.75
2022-10-11T11:07:20.995Z,49.62
2022-10-11T11:08:37.067Z,50.20
2022-10-11T11:09:52.234Z,49.64
2022-10-11T11:11:03.899Z,49.81
2022-10-11T11:12:06.682Z,49.74
2022-10-11T11:13:32.972Z,49.29
2022-10-11T11:15:05.208Z,49.65
2022-10-11T11:16:22.477Z,49.58
2022-10-11T11:17:29.924Z,49.93
2022-10-11T11:18:44.528Z,50.18
2022-10-11T11:19:53.711Z,50.16
2022-10-11T11:21:13.587Z,48.60
2022-10-11T11:22:26.275Z,49.66
2022-10-11T11:24:01.526Z,49.70
2022-10-11T11:25:07.413Z,48.68
2022-10-11T11:26:16.626Z,48.61
2022-10-11T11:27:19.520Z,47.69
2022-10-11T11:28:23.305Z,47.12
2022-10-11T11:29:35.720Z,47.00
2022-10-11T11:30:55.247Z,47.52
2022-10-11T11:32:04.102Z,46.40
2022-10-11T11:33:29.194Z,46.18
2022-10-11T11:34:55.491Z,45.48
2022-10-11T11:36:02.892Z,45.61
2022-10-11T11:37:12.263Z,46.42
2022-10-11T11:38:33.710Z,46.31
2022-10-11T11:39:43.939Z,46.03
2022-10-11T11:40:49.883Z,45.85
2022-10-11T11:41:56.139Z,46.24
2022-10-11T11:43:01.201Z,45.19
2022-10-11T11:44:27.289Z,45.97
2022-10-11T11:45:35.462Z,44.77
2022-10-11T11:46:41.831Z,43.46
2022-10-11T11:47:47.302Z,43.60
2022-10-11T11:48:51.969Z,44.53
2022-10-11T11:50:23.164Z,45.00
2022-10-11T11:51:45.507Z,44.63
2022-10-11T11:52:52.012Z,45.38
2022-10-11T11:53:54.864Z,45.05
2022-10-11T11:55:28.028Z,45.24
2022-10-11T11:56:42.108Z,45.42
2022-10-11T11:58:07.177Z,45.54
2022-10-11T11:59:16.044Z,45.56
2022-10-11T12:00:24.014Z,45.76
2022-10-11T12:01:40.569Z,45.00
2022-10-11T12:02:52.665Z,44.79
2022-10-11T12:04:02.843Z,45.50
2022-10-11T12:05:07.488Z,44.32
2022-10-11T12:06:16.535Z,44.11
2022-10-11T12:07:20.883Z,43.75
2022-10-11T12:08:28.202Z,44.26
2022-10-11T12:09:31.867Z,44.31
2022-10-11T12:10:37.742Z,44.05
2022-10-11T12:11:42.751Z,42.82
2022-10-11T12:12:46.163Z,43.01
2022-10-11T12:13:51.082Z,43.09
2022-10-11T12:15:17.085Z,43.43
2022-10-11T12:16:21.236Z,42.37
2022-10-11T12:17:24.473Z,41.91
2022-10-11T12:18:29.588Z,42.96
2022-10-11T12:19:32.776Z,43.02
2022-10-11T12:20:38.800Z,42.09
2022-10-11T12:21:44.031Z,41.76
2022-10-11T12:22:49.935Z,41.67
2022-10-11T12:23:54.599Z,41.79
2022-10-11T12:24:59.270Z,41.31
2022-10-11T12:26:21.200Z,42.13
2022-10-11T12:27:47.493Z,41.49
2022-10-11T12:29:03.805Z,41.11
2022-10-11T12:30:42.223Z,40.82
2022-10-11T12:31:46.527Z,40.68
2022-10-11T12:32:51.135Z,40.37
2022-10-11T12:34:14.536Z,40.88
2022-10-11T12:35:33.506Z,41.01
2022-10-11T12:36:44.052Z,40.59
2022-10-11T12:37:51.563Z,40.26
2022-10-11T12:39:15.092Z,39.81
2022-10-11T12:40:41.927Z,39.70
2022-10-11T12:41:51.884Z,39.68
2022-10-11T12:43:14.205Z,39.95
2022-10-11T12:44:23.355Z,39.50
2022-10-11T12:45:31.222Z,39.63
2022-10-11T12:46:39.532Z,39.97
2022-10-11T12:47:54.778Z,39.49
2022-10-11T12:49:01.171Z,39.77
2022-10-11T12:50:16.056Z,40.13
2022-10-11T12:51:32.816Z,40.08
2022-10-11T12:52:56.276Z,39.65
2022-10-11T12:54:25.478Z,40.14
2022-10-11T12:55:37.687Z,40.44
2022-10-11T12:56:47.996Z,40.20
2022-10-11T12:58:10.401Z,40.21
2022-10-11T12:59:21.571Z,40.68
2022-10-11T13:00:41.637Z,40.90
2022-10-11T13:01:51.789Z,41.04
2022-10-11T13:02:55.684Z,41.43
2022-10-11T13:04:08.790Z,41.35
2022-10-11T13:05:23.381Z,41.50
2022-10-11T13:06:32.127Z,41.80
2022-10-11T13:07:35.673Z,41.89
2022-10-11T13:08:41.706Z,41.97
2022-10-11T13:09:48.957Z,42.37
2022-10-11T13:10:52.890Z,42.65
2022-10-11T13:12:03.046Z,42.69
2022-10-11T13:13:10.133Z,42.64
2022-10-11T13:14:19.013Z,42.79
2022-10-11T13:15:24.596Z,42.68
2022-10-11T13:16:29.484Z,42.44
2022-10-11T13:17:38.459Z,42.29
2022-10-11T13:18:44.129Z,42.08
2022-10-11T13:19:51.181Z,41.49
2022-10-11T13:20:54.996Z,41.28
2022-10-11T13:21:59.004Z,41.64
2022-10-11T13:23:02.405Z,41.72
2022-10-11T13:24:16.051Z,41.03
2022-10-11T13:25:37.699Z,40.50
2022-10-11T13:26:41.730Z,41.16
2022-10-11T13:27:44.849Z,41.04
2022-10-11T13:28:47.740Z,40.84
2022-10-11T13:29:52.963Z,41.06
2022-10-11T13:30:57.231Z,41.01
2022-10-11T13:32:03.446Z,41.32
2022-10-11T13:33:08.731Z,41.27
2022-10-11T13:34:12.724Z,40.71
2022-10-11T13:35:29.551Z,40.96
2022-10-11T13:36:33.636Z,40.67
2022-10-11T13:37:44.571Z,40.28
2022-10-11T13:38:53.625Z,40.48
2022-10-11T13:39:57.336Z,40.37
2022-10-11T13:41:03.126Z,40.32
2022-10-11T13:42:09.055Z,40.21
2022-10-11T13:43:13.197Z,40.44
2022-10-11T13:44:16.373Z,40.45
2022-10-11T13:45:21.418Z,40.30
2022-10-11T13:46:26.299Z,40.66
2022-10-11T13:47:30.261Z,40.52
2022-10-11T13:48:39.075Z,39.85
2022-10-11T13:49:53.554Z,40.30
2022-10-11T13:51:05.749Z,39.77
2022-10-11T13:52:17.982Z,39.92
2022-10-11T13:53:24.961Z,39.65
2022-10-11T13:54:48.897Z,39.47
2022-10-11T13:55:56.943Z,40.02
2022-10-11T13:56:59.833Z,40.35
2022-10-11T13:58:11.221Z,40.45
2022-10-11T13:59:20.333Z,40.54
2022-10-11T14:00:25.980Z,40.46
2022-10-11T14:01:36.331Z,39.74
2022-10-11T14:02:46.839Z,40.37
2022-10-11T14:03:54.924Z,40.24
2022-10-11T14:04:57.839Z,39.79
2022-10-11T14:06:00.975Z,39.66
2022-10-11T14:07:04.232Z,40.19
2022-10-11T14:08:18.596Z,40.44
2022-10-11T14:09:23.685Z,40.57
2022-10-11T14:10:27.020Z,40.77
2022-10-11T14:11:34.502Z,40.92
2022-10-11T14:12:40.498Z,41.32
2022-10-11T14:13:47.386Z,41.78
2022-10-11T14:14:50.522Z,42.07
2022-10-11T14:16:01.105Z,42.44
2022-10-11T14:17:05.771Z,42.66
2022-10-11T14:18:31.743Z,42.99
2022-10-11T14:19:34.627Z,43.43
2022-10-11T14:20:38.868Z,43.59
2022-10-11T14:21:47.858Z,43.89
2022-10-11T14:22:54.016Z,44.41
2022-10-11T14:23:58.308Z,44.50
2022-10-11T14:25:01.243Z,45.24
2022-10-11T14:26:04.859Z,45.47
2022-10-11T14:27:14.184Z,45.47
2022-10-11T14:28:17.298Z,45.74
2022-10-11T14:29:28.372Z,46.37
2022-10-11T14:30:31.660Z,46.57
2022-10-11T14:31:40.640Z,46.78
2022-10-11T14:32:46.077Z,47.14
2022-10-11T14:33:49.119Z,47.85
2022-10-11T14:34:52.762Z,47.59
2022-10-11T14:35:55.835Z,48.08
2022-10-11T14:36:58.872Z,48.32
2022-10-11T14:38:02.746Z,48.52
2022-10-11T14:39:10.409Z,48.70
2022-10-11T14:40:15.542Z,49.09
2022-10-11T14:41:18.777Z,49.97
2022-10-11T14:42:21.914Z,50.26
2022-10-11T14:43:24.782Z,50.27
2022-10-11T14:44:27.951Z,50.24
2022-10-11T14:45:30.985Z,50.79
2022-10-11T14:46:35.973Z,51.19
2022-10-11T14:47:42.978Z,51.17
2022-10-11T14:49:01.463Z,51.46
2022-10-11T14:50:33.891Z,52.78
2022-10-11T14:51:37.859Z,52.35
2022-10-11T14:52:40.798Z,52.51
2022-10-11T14:53:46.382Z,52.35
2022-10-11T14:54:49.331Z,52.80
2022-10-11T14:55:52.749Z,53.16
2022-10-11T14:56:57.144Z,53.46
2022-10-11T14:58:00.241Z,53.43
2022-10-11T14:59:03.149Z,53.69
2022-10-11T15:00:17.298Z,53.58
2022-10-11T15:01:20.238Z,53.71
2022-10-11T15:02:23.354Z,53.64
2022-10-11T15:03:26.423Z,53.93
2022-10-11T15:04:29.427Z,54.17
2022-10-11T15:05:34.352Z,54.21
2022-10-11T15:06:38.878Z,54.31
2022-10-11T15:07:41.962Z,54.24
2022-10-11T15:08:45.182Z,54.29
2022-10-11T15:09:48.156Z,54.57
2022-10-11T15:10:51.259Z,54.68
2022-10-11T15:11:55.035Z,55.40
2022-10-11T15:12:57.930Z,54.79
2022-10-11T15:14:12.390Z,55.15
2022-10-11T15:15:20.302Z,55.08
2022-10-11T15:16:23.725Z,55.28
2022-10-11T15:17:26.595Z,55.76
2022-10-11T15:18:29.501Z,56.10
2022-10-11T15:19:33.367Z,55.83
2022-10-11T15:20:40.925Z,55.72
2022-10-11T15:21:44.345Z,55.95
2022-10-11T15:22:47.453Z,56.35
2022-10-11T15:23:51.158Z,56.36
2022-10-11T15:24:54.225Z,57.04
2022-10-11T15:25:57.336Z,56.78
2022-10-11T15:27:00.384Z,56.64
2022-10-11T15:28:03.967Z,57.07
2022-10-11T15:29:07.549Z,57.02